EPSC/SZZ METAR and TAF weather

Enter ICAO airport designator
Station Type Date Time Source
EPSC METAR 2019/10/18 06:30 UTC NOAA

EPSC 180630Z 16008KT 9999 FEW005 BKN012 12/12 Q1011


Station Type Date Time Source
EPSC Decoded METAR 2019/10/18 06:30 UTC NOAA

Szczecin, Poland (EPSC) 53-24N 014-37E 3M
Oct 18, 2019 - 02:30 AM EDT / 2019.10.18 0630 UTC
Wind: from the SSE (160 degrees) at 9 MPH (8 KT):0
Visibility: greater than 7 mile(s):0
Sky conditions: mostly cloudy
Temperature: 53 F (12 C)
Dew Point: 53 F (12 C)
Relative Humidity: 100%
Pressure (altimeter): 29.85 in. Hg (1011 hPa)
ob: EPSC 180630Z 16008KT 9999 FEW005 BKN012 12/12 Q1011
cycle: 6

Station Type Date Time Source
EPSC TAF 2019/10/18 06:33 UTC NOAA

TAF EPSC 180530Z 1806/1906 17008KT 9999 BKN030
TEMPO 1806/1810 BKN007 PROB40
TEMPO 1806/1809 3000 -DZ BR BKN004
TEMPO 1818/1823 -SHRA SCT012 BKN035CB PROB40 1901/1906 4000 BR BKN003

Example: see airport list